Randolph, Maine
Current Conditions -  °F | °C
As of 4:53 AM on Thursday 23 Oct 2014 (Local Time) from KAUG Reporting Station
Light Rain Light Rain  
Wind Chill: 37°   Ceiling: 600
Heat Index: 45°   Visibility: 6mi
Dew Point: 44°   Wind: 20mph
Humidity: 97%   Direction: 20°NNE
Pressure: 29.93"   Gusts: 28mph
Location:  44.23°N, 69.75°W
Report Text: KAUG 230853Z AUTO 02017G24KT 6SM -RA BR OVC006 07/07 A2993 RMK AO2 PK WND 04030/0811 CIG 005V009 SLP139 P0000 60001 T00720067 56023
Loading
Personal Weather Stations






























Interactive Weather Map
Tropical Storm Tracking
New forecast layout! Learn more

10-Day Weather Forecast

Advertisements
Track Severe Weather on mobile